Time;durP1;ratioP1;P1;durP2;ratioP2;P2;SDS_P1;SDS_P2;PMS_P1;PMS_P2;Temp;Humidity;BMP_temperature;BMP_pressure;BME280_temperature;BME280_humidity;BME280_pressure;Samples;Min_cycle;Max_cycle;Signal;HPM_P1;HPM_P2
2022/11/27 00:01:15;;;;;;;1.33;1.23;;;;;;;4.29;87.36;96648.00;4350125;32;20310;-60
2022/11/27 00:03:41;;;;;;;1.87;1.77;;;;;;;4.50;87.12;96644.91;4331649;32;20305;-60
2022/11/27 00:06:14;;;;;;;0.97;0.97;;;;;;;4.23;87.29;96638.38;4329276;32;20314;-60
2022/11/27 00:08:43;;;;;;;1.70;1.57;;;;;;;4.11;87.98;96633.06;4336431;32;20285;-60
2022/11/27 00:11:13;;;;;;;1.27;1.27;;;;;;;4.04;88.07;96638.38;4346561;32;20356;-60
2022/11/27 00:13:40;;;;;;;1.20;1.10;;;;;;;4.07;88.57;96637.16;4328891;32;20284;-60
2022/11/27 00:16:12;;;;;;;2.37;2.17;;;;;;;3.84;89.13;96645.69;4371598;32;20306;-60
2022/11/27 00:18:38;;;;;;;2.07;1.90;;;;;;;4.09;88.67;96643.78;4373955;32;20299;-60
2022/11/27 00:21:10;;;;;;;1.37;1.37;;;;;;;4.20;87.90;96644.06;4330336;32;20323;-60
2022/11/27 00:23:38;;;;;;;0.73;0.73;;;;;;;4.09;88.21;96648.25;4349385;32;20273;-59
2022/11/27 00:26:06;;;;;;;1.10;1.10;;;;;;;4.01;88.64;96651.16;4355286;32;20312;-60
2022/11/27 00:28:32;;;;;;;0.30;0.30;;;;;;;4.00;89.02;96652.16;4356748;32;20283;-61
2022/11/27 00:31:04;;;;;;;0.83;0.83;;;;;;;4.07;88.55;96643.19;4373236;32;20276;-60
2022/11/27 00:33:31;;;;;;;0.37;0.37;;;;;;;3.99;88.98;96643.47;4343957;32;20272;-60
2022/11/27 00:36:09;;;;;;;0.90;0.90;;;;;;;3.76;89.45;96640.69;4368284;32;20330;-60
2022/11/27 00:38:37;;;;;;;1.43;1.33;;;;;;;3.88;89.19;96641.59;4368208;32;20349;-60
2022/11/27 00:41:25;;;;;;;1.30;1.30;;;;;;;4.05;88.42;96640.00;4368773;32;20350;-60
2022/11/27 00:43:53;;;;;;;0.87;0.87;;;;;;;4.04;88.07;96637.59;4363726;32;20272;-60
2022/11/27 00:46:23;;;;;;;1.20;1.20;;;;;;;3.93;88.92;96626.00;4343933;32;20264;-60
2022/11/27 00:48:50;;;;;;;1.30;1.30;;;;;;;3.73;89.08;96617.53;4355440;32;21800;-60
2022/11/27 00:51:22;;;;;;;0.50;0.50;;;;;;;3.76;89.22;96614.47;4315649;32;20424;-60
2022/11/27 00:53:47;;;;;;;1.47;1.43;;;;;;;3.77;88.92;96605.56;4334621;32;20274;-60
2022/11/27 00:56:40;;;;;;;1.33;1.33;;;;;;;3.68;89.00;96606.88;4363393;32;20288;-60
2022/11/27 00:59:06;;;;;;;0.93;0.70;;;;;;;3.48;89.79;96608.91;4364253;32;20258;-60
2022/11/27 01:01:42;;;;;;;0.77;0.77;;;;;;;3.53;89.88;96615.13;4366176;32;20288;-60
2022/11/27 01:04:13;;;;;;;1.30;1.20;;;;;;;3.53;89.80;96609.06;4374473;32;20181;-60
2022/11/27 01:06:41;;;;;;;1.00;1.00;;;;;;;3.68;89.60;96606.88;4351396;32;20290;-61
2022/11/27 01:09:10;;;;;;;1.00;1.00;;;;;;;3.59;89.55;96616.06;4355742;32;20292;-60
2022/11/27 01:11:37;;;;;;;0.93;0.93;;;;;;;3.50;90.04;96609.50;4352042;32;20285;-60
2022/11/27 01:14:15;;;;;;;0.93;0.93;;;;;;;3.67;89.56;96594.78;4369174;32;20323;-60
2022/11/27 01:16:41;;;;;;;0.80;0.80;;;;;;;3.55;89.21;96592.06;4374137;32;20330;-60
2022/11/27 01:19:11;;;;;;;0.77;0.77;;;;;;;3.74;88.73;96590.28;4378136;32;20283;-61
2022/11/27 01:21:38;;;;;;;1.20;1.13;;;;;;;3.73;88.74;96586.06;4375357;32;20288;-60
2022/11/27 01:24:06;;;;;;;1.07;1.07;;;;;;;3.82;88.57;96591.78;4351691;32;20355;-60
2022/11/27 01:26:32;;;;;;;0.90;0.90;;;;;;;3.70;88.86;96589.91;4383542;32;20314;-60
2022/11/27 01:28:58;;;;;;;0.93;0.83;;;;;;;3.83;88.30;96594.19;4363292;32;20279;-60
2022/11/27 01:31:30;;;;;;;1.03;1.03;;;;;;;3.73;88.38;96583.44;4357523;32;20281;-60
2022/11/27 01:34:09;;;;;;;0.60;0.60;;;;;;;3.87;88.30;96584.88;4359138;32;20314;-60
2022/11/27 01:36:37;;;;;;;0.47;0.47;;;;;;;3.85;87.68;96586.91;4362576;32;20355;-60
2022/11/27 01:39:04;;;;;;;0.80;0.80;;;;;;;3.94;87.46;96584.81;4362876;32;20288;-59
2022/11/27 01:41:46;;;;;;;0.50;0.50;;;;;;;3.96;87.41;96577.50;4366795;32;20272;-62
2022/11/27 01:44:29;;;;;;;1.13;1.13;;;;;;;3.90;87.22;96576.56;4365105;32;20291;-60
2022/11/27 01:47:12;;;;;;;0.60;0.60;;;;;;;3.66;87.98;96578.25;4371766;32;20265;-60
2022/11/27 01:49:44;;;;;;;0.67;0.67;;;;;;;3.71;88.29;96574.97;4356922;32;20280;-60
2022/11/27 01:52:25;;;;;;;0.43;0.43;;;;;;;3.67;88.15;96576.41;4348052;32;20305;-60
2022/11/27 01:55:00;;;;;;;0.77;0.77;;;;;;;3.84;87.60;96576.63;4343039;32;20391;-60
2022/11/27 01:57:34;;;;;;;0.73;0.67;;;;;;;3.78;87.91;96581.72;4329722;32;20293;-62
2022/11/27 02:00:05;;;;;;;0.30;0.30;;;;;;;3.79;87.06;96582.53;4348123;32;20334;-60
2022/11/27 02:02:35;;;;;;;0.80;0.80;;;;;;;3.91;87.20;96575.53;4366397;32;20277;-60
2022/11/27 02:05:02;;;;;;;1.60;0.83;;;;;;;3.98;86.73;96584.13;4352278;32;20293;-60
2022/11/27 02:07:27;;;;;;;0.47;0.47;;;;;;;3.66;87.91;96569.56;4365819;32;20311;-61
2022/11/27 02:09:52;;;;;;;0.93;0.93;;;;;;;3.74;87.96;96577.94;4354114;32;20280;-60
2022/11/27 02:12:55;;;;;;;0.10;0.10;;;;;;;3.72;88.10;96571.34;4341934;32;20287;-60
2022/11/27 02:15:48;;;;;;;1.10;1.03;;;;;;;3.59;88.55;96571.44;4337535;32;20183;-60
2022/11/27 02:18:26;;;;;;;0.33;0.33;;;;;;;3.59;88.47;96567.00;4338743;32;20288;-59
2022/11/27 02:21:18;;;;;;;0.60;0.60;;;;;;;3.61;88.19;96570.22;4325163;32;20299;-60
2022/11/27 02:24:18;;;;;;;3.90;0.60;;;;;;;3.50;88.71;96565.72;4322199;32;20335;-60
2022/11/27 02:27:13;;;;;;;0.73;0.73;;;;;;;3.45;89.32;96561.09;4362699;32;20350;-59
2022/11/27 02:29:44;;;;;;;0.37;0.37;;;;;;;3.51;89.24;96543.72;4342312;32;20290;-59
2022/11/27 02:32:35;;;;;;;7.93;1.33;;;;;;;3.57;88.77;96544.62;4344639;32;20399;-59
2022/11/27 02:35:19;;;;;;;0.43;0.37;;;;;;;3.78;87.96;96531.88;4357016;32;20320;-59
2022/11/27 02:38:09;;;;;;;0.50;0.50;;;;;;;3.65;87.76;96533.84;4372300;32;20320;-59
2022/11/27 02:41:01;;;;;;;0.20;0.20;;;;;;;3.45;88.56;96536.69;4369796;32;20347;-59
2022/11/27 02:43:37;;;;;;;0.90;0.90;;;;;;;3.51;89.23;96524.53;4356960;32;20288;-60
2022/11/27 02:46:08;;;;;;;0.30;0.30;;;;;;;3.43;88.53;96525.63;4295637;33;20300;-59
2022/11/27 02:48:45;;;;;;;0.33;0.33;;;;;;;3.35;89.21;96524.06;4319664;32;20302;-59
2022/11/27 02:51:18;;;;;;;0.57;0.57;;;;;;;3.18;89.98;96533.53;4344899;32;20282;-59
2022/11/27 02:54:08;;;;;;;0.70;0.70;;;;;;;3.19;89.83;96527.28;4370447;32;20319;-59
2022/11/27 02:56:38;;;;;;;0.30;0.30;;;;;;;3.06;90.35;96511.69;4371534;32;20342;-59
2022/11/27 02:59:19;;;;;;;0.63;0.63;;;;;;;3.15;90.56;96505.13;4346692;32;20284;-60
2022/11/27 03:01:54;;;;;;;0.73;0.73;;;;;;;3.15;90.16;96507.75;4351315;32;20335;-59
2022/11/27 03:04:33;;;;;;;0.80;0.77;;;;;;;3.24;89.31;96506.47;4381269;32;20302;-59
2022/11/27 03:07:04;;;;;;;1.13;1.03;;;;;;;3.04;89.80;96495.37;4370951;32;20284;-60
2022/11/27 03:09:37;;;;;;;0.30;0.30;;;;;;;2.85;90.54;96486.69;4371441;32;20283;-59
2022/11/27 03:12:15;;;;;;;0.37;0.37;;;;;;;2.95;90.73;96484.34;4375010;32;20336;-59
2022/11/27 03:14:43;;;;;;;0.50;0.50;;;;;;;2.77;90.79;96484.31;4372886;32;20280;-60
2022/11/27 03:17:34;;;;;;;0.70;0.70;;;;;;;2.56;91.77;96485.50;4346655;32;20316;-59
2022/11/27 03:20:29;;;;;;;0.77;0.77;;;;;;;2.92;90.59;96481.34;4339374;32;20355;-60
2022/11/27 03:22:59;;;;;;;0.50;0.50;;;;;;;2.99;90.45;96487.34;4382465;32;20284;-60
2022/11/27 03:25:28;;;;;;;1.73;1.03;;;;;;;3.00;90.23;96479.28;4355723;32;20276;-60
2022/11/27 03:28:05;;;;;;;1.97;1.07;;;;;;;3.31;89.11;96478.34;4348146;32;20350;-59
2022/11/27 03:30:30;;;;;;;0.40;0.40;;;;;;;3.30;88.69;96483.81;4329622;32;20272;-59
2022/11/27 03:33:19;;;;;;;0.83;0.70;;;;;;;3.30;88.34;96479.37;4384600;32;20318;-59
2022/11/27 03:35:45;;;;;;;0.90;0.90;;;;;;;3.27;88.80;96474.56;4375494;32;20279;-58
2022/11/27 03:38:12;;;;;;;0.60;0.60;;;;;;;3.21;88.28;96464.13;4368590;32;20280;-59
2022/11/27 03:41:02;;;;;;;0.73;0.73;;;;;;;3.04;88.92;96469.97;4361388;32;20307;-60
2022/11/27 03:43:37;;;;;;;1.53;1.53;;;;;;;3.13;88.95;96467.84;4363848;32;20290;-60
2022/11/27 03:46:22;;;;;;;0.43;0.43;;;;;;;3.38;87.97;96465.97;4372423;32;20285;-59
2022/11/27 03:49:48;;;;;;;0.57;0.57;;;;;;;3.28;87.76;96457.81;4376608;32;20276;-59
2022/11/27 03:53:00;;;;;;;0.50;0.50;;;;;;;3.30;87.91;96452.34;4341199;32;20365;-59
2022/11/27 03:56:05;;;;;;;1.27;0.77;;;;;;;3.26;88.17;96446.75;4330855;32;20383;-59
2022/11/27 03:58:48;;;;;;;0.70;0.60;;;;;;;3.09;88.25;96445.72;4334858;32;20289;-59
2022/11/27 04:01:18;;;;;;;0.60;0.60;;;;;;;3.29;87.90;96451.56;4318812;32;20297;-59
2022/11/27 04:03:45;;;;;;;0.43;0.43;;;;;;;3.37;87.92;96448.63;4322818;32;20275;-59
2022/11/27 04:06:11;;;;;;;0.63;0.63;;;;;;;3.56;87.03;96451.22;4333947;32;20315;-59
2022/11/27 04:08:57;;;;;;;0.40;0.40;;;;;;;3.23;87.81;96447.19;4354002;32;20276;-59
2022/11/27 04:11:25;;;;;;;0.83;0.40;;;;;;;3.29;87.37;96448.94;4378328;32;20188;-60
2022/11/27 04:13:51;;;;;;;1.27;1.17;;;;;;;3.42;87.08;96456.63;4360251;32;20284;-59
2022/11/27 04:16:19;;;;;;;0.73;0.73;;;;;;;3.30;87.03;96463.66;4367889;32;20367;-59
2022/11/27 04:18:46;;;;;;;0.63;0.63;;;;;;;3.31;87.60;96457.37;4355054;32;20402;-59
2022/11/27 04:21:12;;;;;;;0.53;0.53;;;;;;;3.21;88.16;96453.66;4373936;32;20330;-60
2022/11/27 04:23:39;;;;;;;0.57;0.57;;;;;;;3.37;87.71;96447.81;4349163;32;20322;-59
2022/11/27 04:26:07;;;;;;;0.80;0.80;;;;;;;3.26;87.68;96457.22;4375401;32;20287;-59
2022/11/27 04:28:35;;;;;;;1.03;0.90;;;;;;;3.28;87.73;96454.38;4333113;32;20280;-59
2022/11/27 04:31:00;;;;;;;2.00;1.90;;;;;;;3.32;87.88;96452.94;4385675;32;20284;-60
2022/11/27 04:33:27;;;;;;;1.23;1.13;;;;;;;3.41;87.41;96452.41;4383824;32;20301;-60
2022/11/27 04:35:54;;;;;;;0.50;0.50;;;;;;;3.39;87.56;96454.44;4350919;32;20189;-59
2022/11/27 04:38:20;;;;;;;1.50;1.40;;;;;;;3.37;87.48;96451.25;4349144;32;21072;-59
2022/11/27 04:40:47;;;;;;;0.50;0.50;;;;;;;3.24;87.91;96448.78;4373450;32;20298;-60
2022/11/27 04:43:14;;;;;;;1.50;1.40;;;;;;;3.12;88.11;96456.56;4370672;32;20293;-60
2022/11/27 04:45:40;;;;;;;0.70;0.70;;;;;;;3.10;88.91;96452.56;4359509;32;20281;-59
2022/11/27 04:48:08;;;;;;;0.67;0.67;;;;;;;2.88;89.07;96444.31;4360022;32;20283;-59
2022/11/27 04:50:33;;;;;;;0.93;0.93;;;;;;;2.89;89.60;96442.50;4328725;32;20189;-60
2022/11/27 04:52:59;;;;;;;0.43;0.20;;;;;;;2.88;89.46;96441.72;4358696;32;20290;-60
2022/11/27 04:55:26;;;;;;;0.77;0.77;;;;;;;3.33;87.68;96446.66;4366280;32;20228;-59
2022/11/27 04:57:53;;;;;;;0.70;0.70;;;;;;;3.18;87.83;96447.03;4362088;32;20287;-59
2022/11/27 05:00:23;;;;;;;1.27;1.27;;;;;;;2.82;88.88;96447.00;4388051;32;20280;-60
2022/11/27 05:02:48;;;;;;;0.80;0.80;;;;;;;2.81;89.62;96459.31;4377123;32;20364;-60
2022/11/27 05:05:16;;;;;;;0.60;0.60;;;;;;;3.09;88.69;96451.78;4375821;32;20302;-59
2022/11/27 05:07:42;;;;;;;0.53;0.53;;;;;;;3.24;87.81;96458.47;4355263;32;20243;-59
2022/11/27 05:10:12;;;;;;;0.50;0.50;;;;;;;3.16;87.22;96454.31;4370609;32;20277;-59
2022/11/27 05:12:39;;;;;;;0.87;0.83;;;;;;;3.03;87.75;96460.50;4366977;32;20238;-60
2022/11/27 05:15:09;;;;;;;1.33;0.80;;;;;;;2.85;88.19;96457.06;4370385;32;20320;-59
2022/11/27 05:17:36;;;;;;;0.67;0.67;;;;;;;2.86;88.24;96456.84;4368885;32;20316;-60
2022/11/27 05:20:03;;;;;;;0.83;0.83;;;;;;;2.49;88.99;96455.16;4360385;32;20285;-59
2022/11/27 05:22:31;;;;;;;0.20;0.20;;;;;;;2.25;90.16;96451.53;4360737;32;20283;-59
2022/11/27 05:24:58;;;;;;;1.10;0.97;;;;;;;2.17;91.00;96457.00;4384608;32;20276;-60
2022/11/27 05:27:25;;;;;;;0.93;0.93;;;;;;;2.08;91.16;96444.16;4382890;32;20278;-59
2022/11/27 05:29:52;;;;;;;0.53;0.53;;;;;;;1.92;92.24;96447.28;4373323;32;20319;-59
2022/11/27 05:32:18;;;;;;;0.40;0.40;;;;;;;1.94;93.04;96440.03;4369141;32;20379;-59
2022/11/27 05:34:44;;;;;;;1.30;1.27;;;;;;;1.90;93.00;96446.69;4349214;32;20327;-59
2022/11/27 05:37:12;;;;;;;0.50;0.50;;;;;;;2.11;92.52;96450.00;4351912;32;20302;-59
2022/11/27 05:39:38;;;;;;;0.50;0.50;;;;;;;2.03;91.83;96457.09;4375634;32;20326;-60
2022/11/27 05:42:06;;;;;;;0.47;0.47;;;;;;;2.44;90.95;96458.41;4348077;32;20319;-59
2022/11/27 05:44:33;;;;;;;0.83;0.83;;;;;;;2.74;89.54;96453.31;4356265;32;20311;-59
2022/11/27 05:47:00;;;;;;;0.33;0.33;;;;;;;2.59;88.85;96443.19;4375320;32;20277;-60
2022/11/27 05:49:26;;;;;;;1.70;1.47;;;;;;;2.76;88.80;96436.38;4367319;32;20288;-59
2022/11/27 05:51:53;;;;;;;0.53;0.53;;;;;;;2.76;87.98;96438.19;4379578;32;20311;-59
2022/11/27 05:54:19;;;;;;;0.33;0.33;;;;;;;2.82;88.11;96439.94;4363605;32;20336;-59
2022/11/27 05:56:45;;;;;;;0.47;0.47;;;;;;;2.83;88.28;96425.03;4361759;32;20361;-59
2022/11/27 05:59:16;;;;;;;0.53;0.53;;;;;;;2.68;88.37;96434.03;4355226;32;20206;-59
2022/11/27 06:01:43;;;;;;;0.43;0.43;;;;;;;2.72;88.45;96427.31;4376650;32;20363;-59
2022/11/27 06:04:12;;;;;;;0.40;0.40;;;;;;;2.86;88.06;96435.88;4359635;32;20300;-59
2022/11/27 06:06:40;;;;;;;0.70;0.70;;;;;;;2.88;88.07;96433.03;4331516;32;20337;-59
2022/11/27 06:09:07;;;;;;;0.53;0.53;;;;;;;2.86;87.18;96424.59;4332333;32;20333;-59
2022/11/27 06:11:36;;;;;;;0.87;0.87;;;;;;;2.97;86.58;96421.25;4364944;32;20356;-59
2022/11/27 06:14:02;;;;;;;0.30;0.30;;;;;;;2.70;87.39;96426.75;4359936;32;20329;-59
2022/11/27 06:16:29;;;;;;;0.80;0.80;;;;;;;2.65;87.54;96425.81;4382258;32;20287;-59
2022/11/27 06:18:56;;;;;;;0.53;0.53;;;;;;;2.89;87.19;96424.97;4374965;32;20289;-59
2022/11/27 06:21:23;;;;;;;1.30;0.63;;;;;;;2.93;86.72;96425.31;4364558;32;20296;-59
2022/11/27 06:23:57;;;;;;;0.50;0.50;;;;;;;2.92;86.50;96421.88;4355463;32;20301;-59
2022/11/27 06:26:26;;;;;;;0.63;0.63;;;;;;;2.86;86.94;96424.59;4372262;32;20284;-59
2022/11/27 06:28:54;;;;;;;0.60;0.60;;;;;;;2.83;87.05;96425.03;4394241;32;20322;-59
2022/11/27 06:31:23;;;;;;;0.30;0.30;;;;;;;2.81;87.15;96420.00;4366308;32;20397;-59
2022/11/27 06:33:51;;;;;;;0.30;0.30;;;;;;;2.76;87.32;96420.66;4361068;32;20276;-60
2022/11/27 06:36:19;;;;;;;1.03;0.83;;;;;;;2.76;87.06;96423.25;4364469;32;20379;-59
2022/11/27 06:38:45;;;;;;;2.37;1.03;;;;;;;2.94;85.82;96432.97;4355701;32;20328;-59
2022/11/27 06:41:14;;;;;;;0.50;0.50;;;;;;;2.84;86.47;96431.88;4374073;32;20327;-59
2022/11/27 06:43:40;;;;;;;1.80;1.53;;;;;;;2.88;86.28;96428.59;4369289;32;20342;-59
2022/11/27 06:46:11;;;;;;;0.20;0.20;;;;;;;2.63;86.64;96431.25;4360877;32;20350;-59
2022/11/27 06:48:37;;;;;;;0.53;0.53;;;;;;;2.73;86.90;96422.88;4369884;32;20280;-59
2022/11/27 06:51:06;;;;;;;1.13;0.97;;;;;;;2.76;87.07;96427.69;4377114;32;20291;-59
2022/11/27 06:53:37;;;;;;;0.37;0.37;;;;;;;2.62;87.07;96421.00;4374191;32;20226;-59
2022/11/27 06:56:16;;;;;;;0.30;0.30;;;;;;;2.69;87.41;96414.69;4379760;32;20300;-59
2022/11/27 06:58:42;;;;;;;0.77;0.77;;;;;;;2.88;86.48;96422.56;4348628;32;20324;-59
2022/11/27 07:01:13;;;;;;;0.60;0.60;;;;;;;2.96;85.90;96423.06;4335239;32;20299;-59
2022/11/27 07:03:39;;;;;;;1.23;1.23;;;;;;;2.87;86.37;96428.81;4359953;32;20198;-59
2022/11/27 07:06:14;;;;;;;0.10;0.10;;;;;;;2.74;86.89;96417.44;4372740;32;20315;-59
2022/11/27 07:08:42;;;;;;;0.20;0.20;;;;;;;3.06;86.06;96412.88;4386675;32;20187;-59
2022/11/27 07:11:17;;;;;;;0.27;0.27;;;;;;;3.20;85.43;96410.09;4369108;32;20294;-59
2022/11/27 07:13:45;;;;;;;0.77;0.77;;;;;;;3.14;85.74;96411.78;4360374;32;20326;-59
2022/11/27 07:16:11;;;;;;;0.77;0.77;;;;;;;3.24;85.29;96412.06;4375120;32;20324;-59
2022/11/27 07:18:52;;;;;;;0.43;0.43;;;;;;;3.13;85.31;96415.41;4370319;32;20303;-60
2022/11/27 07:21:18;;;;;;;0.53;0.53;;;;;;;2.97;85.72;96406.31;4366099;32;20407;-59
2022/11/27 07:23:46;;;;;;;1.53;1.53;;;;;;;3.18;85.67;96412.94;4389779;32;20294;-59
2022/11/27 07:26:21;;;;;;;0.87;0.50;;;;;;;3.19;85.35;96411.94;4365139;32;20296;-59
2022/11/27 07:28:47;;;;;;;0.63;0.63;;;;;;;3.31;85.28;96414.62;4380352;32;20375;-59
2022/11/27 07:31:21;;;;;;;0.80;0.80;;;;;;;3.36;85.00;96410.31;4359389;32;20302;-59
2022/11/27 07:33:54;;;;;;;0.77;0.77;;;;;;;3.16;86.28;96401.88;4324374;32;20242;-59
2022/11/27 07:36:23;;;;;;;0.67;0.67;;;;;;;3.20;85.96;96400.41;4362830;32;20418;-59
2022/11/27 07:38:50;;;;;;;0.43;0.43;;;;;;;3.18;86.27;96406.91;4318193;32;20285;-59
2022/11/27 07:41:16;;;;;;;0.53;0.53;;;;;;;3.21;86.02;96412.50;4376560;32;20341;-59
2022/11/27 07:43:46;;;;;;;0.67;0.67;;;;;;;3.25;86.54;96397.16;4359459;32;20289;-59
2022/11/27 07:46:19;;;;;;;0.60;0.60;;;;;;;3.20;86.31;96403.03;4378444;32;20193;-59
2022/11/27 07:48:46;;;;;;;0.57;0.57;;;;;;;3.44;86.35;96396.91;4360413;32;20285;-59
2022/11/27 07:51:15;;;;;;;0.40;0.40;;;;;;;3.54;85.86;96400.78;4348265;32;20298;-59
2022/11/27 07:53:41;;;;;;;0.70;0.70;;;;;;;3.46;85.77;96396.69;4334058;32;20284;-59
2022/11/27 07:56:12;;;;;;;1.07;1.07;;;;;;;3.41;86.26;96389.47;4374125;32;20281;-59
2022/11/27 07:58:39;;;;;;;0.67;0.67;;;;;;;3.48;85.66;96391.22;4369003;32;20342;-59
2022/11/27 08:01:13;;;;;;;1.13;1.13;;;;;;;3.35;85.96;96397.41;4332022;32;20328;-59
2022/11/27 08:03:45;;;;;;;0.90;0.90;;;;;;;3.64;84.84;96382.72;4362455;32;20322;-59
2022/11/27 08:06:21;;;;;;;1.13;1.07;;;;;;;3.46;85.29;96394.06;4364451;32;20281;-59
2022/11/27 08:08:49;;;;;;;1.67;1.30;;;;;;;3.45;85.59;96385.38;4362192;32;21448;-59
2022/11/27 08:11:28;;;;;;;1.27;1.17;;;;;;;3.46;85.53;96383.56;4376112;32;20336;-59
2022/11/27 08:14:06;;;;;;;1.27;1.20;;;;;;;3.59;84.95;96390.44;4350126;32;20402;-59
2022/11/27 08:16:34;;;;;;;1.13;1.03;;;;;;;3.56;84.72;96381.19;4346428;32;20285;-59
2022/11/27 08:19:00;;;;;;;1.40;1.30;;;;;;;3.66;84.74;96380.66;4372529;32;20272;-59
2022/11/27 08:21:49;;;;;;;1.37;1.33;;;;;;;3.65;84.87;96379.06;4349722;32;20292;-59
2022/11/27 08:24:16;;;;;;;1.33;1.23;;;;;;;3.32;85.95;96376.91;4356673;32;20298;-59
2022/11/27 08:26:45;;;;;;;0.73;0.73;;;;;;;3.47;86.04;96373.87;4343705;32;20310;-59
2022/11/27 08:29:12;;;;;;;1.13;1.13;;;;;;;3.30;87.08;96369.25;4374468;32;20295;-59
2022/11/27 08:31:38;;;;;;;1.83;1.73;;;;;;;3.42;86.87;96367.47;4369344;32;20280;-59
2022/11/27 08:34:06;;;;;;;0.80;0.80;;;;;;;3.32;87.68;96372.47;4364999;32;20321;-59
2022/11/27 08:36:34;;;;;;;1.27;1.27;;;;;;;3.23;87.75;96362.47;4373553;32;20328;-60
2022/11/27 08:38:59;;;;;;;1.10;1.10;;;;;;;3.31;87.70;96368.22;4370484;32;20294;-60
2022/11/27 08:41:26;;;;;;;1.07;0.97;;;;;;;3.51;87.48;96359.31;4373858;32;20272;-60
2022/11/27 08:43:53;;;;;;;0.70;0.70;;;;;;;3.63;86.59;96358.31;4368976;32;20201;-60
2022/11/27 08:46:20;;;;;;;0.77;0.77;;;;;;;3.64;87.01;96362.53;4362642;32;20277;-59
2022/11/27 08:48:47;;;;;;;1.00;1.00;;;;;;;3.53;87.58;96362.50;4378300;32;20335;-59
2022/11/27 08:51:16;;;;;;;0.90;0.90;;;;;;;3.53;87.22;96370.38;4379452;32;20380;-59
2022/11/27 08:53:44;;;;;;;1.00;1.00;;;;;;;3.63;87.15;96368.81;4370972;32;20284;-59
2022/11/27 08:56:18;;;;;;;1.00;1.00;;;;;;;3.69;86.80;96367.91;4377581;32;20302;-60
2022/11/27 08:58:47;;;;;;;0.90;0.90;;;;;;;3.87;86.31;96366.25;4294121;32;20308;-59
2022/11/27 09:01:29;;;;;;;0.63;0.63;;;;;;;3.77;86.85;96358.91;4368334;32;20298;-60
2022/11/27 09:03:58;;;;;;;1.33;1.23;;;;;;;3.61;87.21;96362.97;4370016;32;20386;-60
2022/11/27 09:06:29;;;;;;;0.80;0.80;;;;;;;3.86;86.77;96364.66;4367630;32;20331;-60
2022/11/27 09:09:00;;;;;;;1.47;1.13;;;;;;;4.02;85.94;96359.53;4361937;32;20281;-60
2022/11/27 09:11:43;;;;;;;0.80;0.80;;;;;;;4.16;85.24;96356.72;4356895;32;20288;-60
2022/11/27 09:14:10;;;;;;;0.90;0.90;;;;;;;4.12;85.31;96351.91;4368799;32;20288;-60
2022/11/27 09:16:36;;;;;;;0.37;0.37;;;;;;;3.99;85.78;96348.69;4366210;32;20328;-59
2022/11/27 09:19:02;;;;;;;1.33;1.33;;;;;;;4.20;85.61;96347.34;4342807;32;20284;-60
2022/11/27 09:21:29;;;;;;;1.10;1.10;;;;;;;4.31;85.35;96354.44;4363541;32;20192;-59
2022/11/27 09:23:58;;;;;;;0.90;0.90;;;;;;;5.49;100.00;96341.63;4371268;32;20331;-58
2022/11/27 09:26:29;;;;;;;1.47;1.37;;;;;;;6.09;100.00;96335.03;4373012;32;20292;-59
2022/11/27 09:29:00;;;;;;;1.20;1.20;;;;;;;6.17;97.10;96338.06;4389537;32;20300;-59
2022/11/27 09:31:29;;;;;;;0.60;0.60;;;;;;;6.55;98.46;96341.78;4356524;32;20312;-58
2022/11/27 09:34:17;;;;;;;4.73;1.33;;;;;;;6.78;96.98;96322.34;4342250;32;20294;-59
2022/11/27 09:36:44;;;;;;;1.37;1.37;;;;;;;7.10;96.60;96333.00;4371782;32;20292;-59
2022/11/27 09:39:10;;;;;;;0.67;0.67;;;;;;;6.84;92.99;96326.63;4366262;32;20293;-59
2022/11/27 09:41:44;;;;;;;5.30;1.40;;;;;;;6.74;90.92;96327.28;4373487;32;20328;-59
2022/11/27 09:44:28;;;;;;;0.67;0.67;;;;;;;7.07;92.31;96323.72;4380340;32;20200;-58
2022/11/27 09:46:55;;;;;;;0.87;0.87;;;;;;;7.21;91.18;96321.53;4358267;32;20299;-58
2022/11/27 09:50:01;;;;;;;0.77;0.77;;;;;;;7.52;92.44;96312.87;4354036;32;20425;-58
2022/11/27 09:52:43;;;;;;;1.40;1.10;;;;;;;7.79;91.15;96312.09;4349989;32;20301;-58
2022/11/27 09:55:14;;;;;;;1.00;1.00;;;;;;;7.78;91.17;96300.72;4355185;32;20292;-58
2022/11/27 09:57:46;;;;;;;2.17;1.00;;;;;;;7.65;88.40;96287.94;4366988;32;20353;-58
2022/11/27 10:00:17;;;;;;;1.13;1.13;;;;;;;7.55;88.13;96293.91;4374262;32;20351;-60
2022/11/27 10:02:44;;;;;;;1.73;1.63;;;;;;;6.89;79.49;96290.56;4370505;32;20292;-59
2022/11/27 10:05:38;;;;;;;1.00;1.00;;;;;;;6.29;77.58;96277.38;4371250;32;20306;-59
2022/11/27 10:08:28;;;;;;;1.33;1.30;;;;;;;5.78;79.39;96286.31;4379421;32;20318;-59
2022/11/27 10:11:45;;;;;;;0.53;0.53;;;;;;;5.86;79.91;96278.00;4377854;32;20359;-59
2022/11/27 10:14:25;;;;;;;2.33;1.13;;;;;;;5.56;80.11;96275.69;4348509;32;20292;-59
2022/11/27 10:17:15;;;;;;;0.80;0.80;;;;;;;5.40;81.04;96264.09;4366924;32;20407;-59
2022/11/27 10:20:19;;;;;;;0.57;0.57;;;;;;;5.16;81.96;96273.16;4358323;32;20356;-58
2022/11/27 10:23:06;;;;;;;1.27;1.27;;;;;;;5.44;80.90;96264.44;4348803;32;20281;-58
2022/11/27 10:25:49;;;;;;;1.30;1.30;;;;;;;5.52;80.98;96262.22;4394441;32;20304;-59
2022/11/27 10:28:39;;;;;;;0.80;0.80;;;;;;;5.42;80.39;96256.75;4329405;32;20368;-59
2022/11/27 10:31:29;;;;;;;2.80;2.20;;;;;;;5.39;80.76;96251.19;4389320;32;20336;-59
2022/11/27 10:34:01;;;;;;;0.60;0.60;;;;;;;5.45;80.19;96251.03;4378185;32;20314;-60
2022/11/27 10:36:39;;;;;;;1.47;1.13;;;;;;;5.45;79.69;96248.41;4355813;32;20292;-60
2022/11/27 10:39:14;;;;;;;0.93;0.93;;;;;;;5.35;80.95;96237.72;4379962;32;20333;-60
2022/11/27 10:42:09;;;;;;;2.73;1.20;;;;;;;5.46;81.32;96236.84;4372438;32;20296;-60
2022/11/27 10:44:59;;;;;;;0.53;0.53;;;;;;;5.47;80.94;96232.38;4374335;32;20325;-60
2022/11/27 10:47:27;;;;;;;1.30;1.20;;;;;;;5.39;81.62;96236.22;4381849;32;20287;-60
2022/11/27 10:49:53;;;;;;;0.57;0.57;;;;;;;5.50;81.05;96226.66;4359025;32;20273;-60
2022/11/27 10:52:20;;;;;;;1.17;1.17;;;;;;;5.50;81.67;96224.81;4354121;32;20300;-60
2022/11/27 10:55:15;;;;;;;0.83;0.83;;;;;;;5.65;80.50;96228.72;4374322;32;20220;-60
2022/11/27 10:58:25;;;;;;;0.97;0.80;;;;;;;5.20;83.00;96216.41;4343998;32;20289;-60
2022/11/27 11:01:01;;;;;;;0.50;0.50;;;;;;;5.24;83.07;96217.53;4316039;32;20384;-60
2022/11/27 11:03:29;;;;;;;0.83;0.83;;;;;;;5.55;81.37;96216.22;4290851;33;20310;-60
2022/11/27 11:06:00;;;;;;;0.50;0.50;;;;;;;5.78;81.01;96220.50;4341792;32;20352;-60
2022/11/27 11:08:30;;;;;;;0.97;0.97;;;;;;;5.70;80.96;96219.06;4324455;33;20296;-60
2022/11/27 11:11:04;;;;;;;0.43;0.43;;;;;;;5.82;80.69;96218.97;4339442;32;20282;-60
2022/11/27 11:13:44;;;;;;;0.50;0.50;;;;;;;6.14;78.98;96220.00;4330343;32;20284;-61
2022/11/27 11:16:29;;;;;;;0.43;0.43;;;;;;;6.01;78.99;96209.84;4361169;32;20358;-60
2022/11/27 11:18:57;;;;;;;0.43;0.43;;;;;;;5.83;79.50;96208.19;4356199;32;20299;-60
2022/11/27 11:21:31;;;;;;;0.70;0.70;;;;;;;6.11;78.07;96211.78;4332997;32;20414;-61
2022/11/27 11:24:19;;;;;;;0.97;0.87;;;;;;;6.13;77.60;96209.72;4370687;32;20359;-61
2022/11/27 11:26:51;;;;;;;0.80;0.80;;;;;;;6.10;77.76;96205.72;4363851;32;20268;-60
2022/11/27 11:29:48;;;;;;;1.00;0.93;;;;;;;6.15;77.30;96210.28;4364679;32;20320;-61
2022/11/27 11:32:32;;;;;;;0.40;0.40;;;;;;;6.31;75.91;96203.38;4376054;32;20293;-60
2022/11/27 11:35:01;;;;;;;0.53;0.43;;;;;;;6.12;77.53;96211.56;4366166;32;20329;-63
2022/11/27 11:37:38;;;;;;;0.70;0.70;;;;;;;6.26;78.45;96208.56;4363249;32;20288;-61
2022/11/27 11:40:26;;;;;;;0.27;0.27;;;;;;;6.26;77.92;96204.09;4368408;32;20291;-61
2022/11/27 11:43:03;;;;;;;1.17;1.07;;;;;;;6.37;77.70;96183.94;4360200;32;20284;-61
2022/11/27 11:45:33;;;;;;;0.70;0.70;;;;;;;6.57;77.12;96186.81;4371250;32;20326;-61
2022/11/27 11:48:02;;;;;;;0.77;0.77;;;;;;;6.46;76.20;96199.06;4350517;32;20293;-60
2022/11/27 11:51:09;;;;;;;1.00;0.93;;;;;;;6.31;77.58;96196.25;4365889;32;20295;-62
2022/11/27 11:54:14;;;;;;;0.73;0.73;;;;;;;6.39;77.99;96202.94;4310098;32;20289;-61
2022/11/27 11:56:55;;;;;;;0.50;0.50;;;;;;;6.44;78.24;96189.84;4359875;32;20295;-61
2022/11/27 12:00:13;;;;;;;0.80;0.80;;;;;;;6.31;78.67;96196.25;4346577;32;20365;-61
2022/11/27 12:02:45;;;;;;;1.13;1.13;;;;;;;6.39;78.82;96200.31;4297182;32;20400;-61
2022/11/27 12:05:48;;;;;;;1.50;1.40;;;;;;;6.08;80.42;96199.91;4340612;32;20299;-60
2022/11/27 12:08:50;;;;;;;1.43;1.33;;;;;;;5.75;82.29;96200.72;4350163;32;20338;-60
2022/11/27 12:11:29;;;;;;;1.13;0.97;;;;;;;5.63;83.10;96193.94;4346706;32;20281;-61
2022/11/27 12:14:07;;;;;;;0.70;0.70;;;;;;;5.55;83.95;96187.25;4343708;32;20332;-61